Impacts TAF Board INFO
FOR SITUATIONAL AWARENESS. NOT TO BE USED FOR FLIGHT PLANNING PURPOSES.
IDs:

KBWI - Baltimore-Washington, MD, US

Issued at 1732 UTC 24 Mar 2017
Updated at 1956 UTC 24 Mar 2017
Potential Impact None Slight Moderate High
Time1954Z 24/20Z 24/21Z 24/22Z 24/23Z 25/00Z 25/01Z 25/02Z 25/03Z 25/04Z 25/05Z 25/06Z 25/07Z 25/08Z
Type OBS PRVL PRVL PRVL PRVL PRVL PRVL PRVL PRVL PRVL PRVL PRVL PRVL PRVL
VIS 10 >6 >6 >6 >6 >6 >6 >6 >6 >6 >6 >6 >6 >6
CIG 250 -- -- -- -- -- -- -- -- -- -- -- -- --
Cover OVC SCT SCT SCT SCT SCT SCT SCT SCT SCT SCT SCT SCT SCT
FltCat VFR VFR VFR VFR VFR VFR VFR VFR VFR VFR VFR VFR VFR VFR
WX -- -- -- -- -- -- -- -- -- -- -- -- -- --
WDir 220 210 210 210 210 210 210 210 210 210 210 210 210 210
WSpd 12 11 11 11 11 7 7 7 7 7 7 7 7 7
WGst -- 17 17 17 17 -- -- -- -- -- -- -- -- --

Raw TAF
KBWI 241732Z 2418/2524 21011G17KT P6SM SCT080
  FM250000 21007KT P6SM SCT140
  FM252200 17004KT P6SM OVC045


Raw METAR
KBWI 241954Z 22012KT 10SM FEW080 OVC250 14/01 A3023 RMK AO2 SLP236 T01440006
KBWI 241854Z 20012G20KT 10SM BKN250 13/01 A3026 RMK AO2 SLP248 T01280006
KBWI 241754Z 23010G16KT 10SM FEW080 BKN210 BKN250 11/02 A3030 RMK AO2 SLP261 60000 T01110017 10117 20017 58041
KBWI 241654Z VRB06G17KT 10SM SCT048 SCT080 BKN230 08/02 A3035 RMK AO2 RAB11E21 SLP278 P0000 T00830022

METAR Board
Radar Display
Forecast Discussion

FOR SITUATIONAL AWARENESS. NOT TO BE USED FOR FLIGHT PLANNING PURPOSES.

Page loaded:  19:56 UTC  |   12:56 PM Pacific  |   01:56 PM Mountain  |   02:56 PM Central  |   03:56 PM Eastern

 

ADVISORIES

FORECASTS

FORECASTS

OBSERVATIONS

USER TOOLS

ABOUT US